createdAt,value
2022-11-07T00:00:33.143Z,73.60
2022-11-07T00:02:59.642Z,74.70
2022-11-07T00:05:26.086Z,74.10
2022-11-07T00:07:52.485Z,73.80
2022-11-07T00:10:18.856Z,73.70
2022-11-07T00:12:45.250Z,73.90
2022-11-07T00:15:11.642Z,73.70
2022-11-07T00:17:38.023Z,73.20
2022-11-07T00:20:04.422Z,73.30
2022-11-07T00:22:30.818Z,73.20
2022-11-07T00:24:57.208Z,73.40
2022-11-07T00:27:23.672Z,73.70
2022-11-07T00:29:50.080Z,74.10
2022-11-07T00:32:16.477Z,74.50
2022-11-07T00:34:42.864Z,74.70
2022-11-07T00:37:09.304Z,75.00
2022-11-07T00:39:35.707Z,74.90
2022-11-07T00:42:02.084Z,75.20
2022-11-07T00:44:28.493Z,75.30
2022-11-07T00:46:54.873Z,75.10
2022-11-07T00:49:21.269Z,75.10
2022-11-07T00:51:47.693Z,74.90
2022-11-07T00:54:14.065Z,75.30
2022-11-07T00:56:40.473Z,75.50
2022-11-07T00:59:06.869Z,76.00
2022-11-07T01:01:33.420Z,76.20
2022-11-07T01:03:59.878Z,76.20
2022-11-07T01:06:26.349Z,76.30
2022-11-07T01:08:52.761Z,76.30
2022-11-07T01:11:19.161Z,76.40
2022-11-07T01:13:45.561Z,76.10
2022-11-07T01:16:12.003Z,76.40
2022-11-07T01:18:38.398Z,76.20
2022-11-07T01:21:04.777Z,76.50
2022-11-07T01:23:31.188Z,76.80
2022-11-07T01:25:57.603Z,77.10
2022-11-07T01:28:23.973Z,77.10
2022-11-07T01:30:50.395Z,77.10
2022-11-07T01:33:17.109Z,77.20
2022-11-07T01:35:43.667Z,77.60
2022-11-07T01:38:10.051Z,78.00
2022-11-07T01:40:36.496Z,78.40
2022-11-07T01:43:02.872Z,78.60
2022-11-07T01:45:29.269Z,78.80
2022-11-07T01:47:55.774Z,79.20
2022-11-07T01:50:24.802Z,79.50
2022-11-07T01:52:51.423Z,79.80
2022-11-07T01:55:17.821Z,80.10
2022-11-07T01:57:44.249Z,80.00
2022-11-07T02:00:10.666Z,80.30
2022-11-07T02:02:37.172Z,80.50
2022-11-07T02:05:03.646Z,80.50
2022-11-07T02:07:30.037Z,80.50
2022-11-07T02:09:56.451Z,80.80
2022-11-07T02:12:22.851Z,80.80
2022-11-07T02:14:49.308Z,81.10
2022-11-07T02:17:15.695Z,81.30
2022-11-07T02:19:42.103Z,81.90
2022-11-07T02:22:08.527Z,83.00
2022-11-07T02:24:34.924Z,84.20
2022-11-07T02:27:01.320Z,85.10
2022-11-07T02:29:27.704Z,85.70
2022-11-07T02:31:54.113Z,86.30
2022-11-07T02:34:20.619Z,87.00
2022-11-07T02:36:47.119Z,88.00
2022-11-07T02:39:13.536Z,88.90
2022-11-07T02:41:39.968Z,89.50
2022-11-07T02:44:06.390Z,90.10
2022-11-07T02:46:32.789Z,90.40
2022-11-07T02:48:59.222Z,90.70
2022-11-07T02:51:25.637Z,90.90
2022-11-07T02:53:52.049Z,91.10
2022-11-07T02:56:18.433Z,91.40
2022-11-07T02:58:44.841Z,91.70
2022-11-07T03:01:11.248Z,91.90
2022-11-07T03:03:37.686Z,92.10
2022-11-07T03:06:04.097Z,92.30
2022-11-07T03:08:30.484Z,92.60
2022-11-07T03:10:56.879Z,92.80
2022-11-07T03:13:23.293Z,93.00
2022-11-07T03:15:49.737Z,93.20
2022-11-07T03:18:16.146Z,93.40
2022-11-07T03:20:42.539Z,93.60
2022-11-07T03:23:08.936Z,93.60
2022-11-07T03:25:35.359Z,93.70
2022-11-07T03:28:01.745Z,93.70
2022-11-07T03:30:28.188Z,93.70
2022-11-07T03:32:54.544Z,93.80
2022-11-07T03:35:20.979Z,93.80
2022-11-07T03:37:47.377Z,94.00
2022-11-07T03:40:13.781Z,93.70
2022-11-07T03:42:40.183Z,93.70
2022-11-07T03:45:06.601Z,93.90
2022-11-07T03:47:33.087Z,94.00
2022-11-07T03:49:59.509Z,94.10
2022-11-07T03:52:25.919Z,94.70
2022-11-07T03:54:52.314Z,94.80
2022-11-07T03:57:18.733Z,95.10
2022-11-07T03:59:45.132Z,95.10
2022-11-07T04:02:11.736Z,95.20
2022-11-07T04:04:38.274Z,95.40
2022-11-07T04:07:04.671Z,95.60
2022-11-07T04:09:31.090Z,95.80
2022-11-07T04:11:57.496Z,95.90
2022-11-07T04:14:23.908Z,96.10
2022-11-07T04:16:50.299Z,96.20
2022-11-07T04:19:16.681Z,96.50
2022-11-07T04:21:43.077Z,96.60
2022-11-07T04:24:09.487Z,96.70
2022-11-07T04:26:35.881Z,96.80
2022-11-07T04:29:02.294Z,97.20
2022-11-07T04:31:28.684Z,97.60
2022-11-07T04:33:55.094Z,97.60
2022-11-07T04:36:21.700Z,97.80
2022-11-07T04:38:48.089Z,97.90
2022-11-07T04:41:14.488Z,98.30
2022-11-07T04:43:40.892Z,98.60
2022-11-07T04:46:07.366Z,99.00
2022-11-07T04:48:33.811Z,99.40
2022-11-07T04:51:00.216Z,99.90
2022-11-07T04:53:26.598Z,99.90
2022-11-07T04:55:52.995Z,99.90
2022-11-07T04:58:19.410Z,99.90
2022-11-07T05:00:45.810Z,99.90
2022-11-07T05:03:12.585Z,99.90
2022-11-07T05:05:39.282Z,99.90
2022-11-07T05:08:05.669Z,99.90
2022-11-07T05:10:32.061Z,99.90
2022-11-07T05:12:58.504Z,99.90
2022-11-07T05:15:24.891Z,99.90
2022-11-07T05:17:51.309Z,99.90
2022-11-07T05:20:17.713Z,99.90
2022-11-07T05:22:44.120Z,99.90
2022-11-07T05:25:10.526Z,99.90
2022-11-07T05:27:36.946Z,99.90
2022-11-07T05:30:03.387Z,99.90
2022-11-07T05:32:29.804Z,99.90
2022-11-07T05:34:56.199Z,99.90
2022-11-07T05:37:22.604Z,99.90
2022-11-07T05:39:54.705Z,99.90
2022-11-07T05:42:21.473Z,99.90
2022-11-07T05:44:47.879Z,99.90
2022-11-07T05:47:14.346Z,99.90
2022-11-07T05:49:40.743Z,99.90
2022-11-07T05:52:07.144Z,99.90
2022-11-07T05:54:33.563Z,99.90
2022-11-07T05:56:59.960Z,99.90
2022-11-07T05:59:26.381Z,99.90
2022-11-07T06:01:52.907Z,99.90
2022-11-07T06:04:19.580Z,99.90
2022-11-07T06:06:45.974Z,99.90
2022-11-07T06:09:12.377Z,99.90
2022-11-07T06:11:38.785Z,99.90
2022-11-07T06:14:05.179Z,99.90
2022-11-07T06:16:31.576Z,99.90
2022-11-07T06:18:58.004Z,99.90
2022-11-07T06:21:24.433Z,99.90
2022-11-07T06:23:50.985Z,99.90
2022-11-07T06:26:17.370Z,99.90
2022-11-07T06:28:43.886Z,99.90
2022-11-07T06:31:10.336Z,99.90
2022-11-07T06:33:36.746Z,99.90
2022-11-07T06:36:03.198Z,99.90
2022-11-07T06:38:29.641Z,99.90
2022-11-07T06:40:56.043Z,99.90
2022-11-07T06:43:22.458Z,99.90
2022-11-07T06:45:48.864Z,99.90
2022-11-07T06:48:15.276Z,99.90
2022-11-07T06:50:41.711Z,99.90
2022-11-07T06:53:08.091Z,99.90
2022-11-07T06:55:34.520Z,99.90
2022-11-07T06:58:01.046Z,99.90
2022-11-07T07:00:27.459Z,99.90
2022-11-07T07:02:58.651Z,99.90
2022-11-07T07:05:25.584Z,99.90
2022-11-07T07:07:51.975Z,99.90
2022-11-07T07:10:18.402Z,99.90
2022-11-07T07:12:44.797Z,99.90
2022-11-07T07:15:11.228Z,99.90
2022-11-07T07:17:37.687Z,99.90
2022-11-07T07:20:04.589Z,99.90
2022-11-07T07:22:30.994Z,99.90
2022-11-07T07:24:57.378Z,99.90
2022-11-07T07:27:23.815Z,99.90
2022-11-07T07:29:50.198Z,99.90
2022-11-07T07:32:16.603Z,99.90
2022-11-07T07:34:43.052Z,99.90
2022-11-07T07:37:09.452Z,99.90
2022-11-07T07:39:35.857Z,99.90
2022-11-07T07:42:02.255Z,99.90
2022-11-07T07:44:28.661Z,99.90
2022-11-07T07:46:55.095Z,99.90
2022-11-07T07:49:21.521Z,99.90
2022-11-07T07:51:47.893Z,99.70
2022-11-07T07:54:14.319Z,99.30
2022-11-07T07:56:40.722Z,98.00
2022-11-07T07:59:07.111Z,97.30
2022-11-07T08:01:33.628Z,97.00
2022-11-07T08:04:02.326Z,96.50
2022-11-07T08:06:29.219Z,95.40
2022-11-07T08:08:55.612Z,94.80
2022-11-07T08:11:22.014Z,94.20
2022-11-07T08:13:48.397Z,94.10
2022-11-07T08:16:14.813Z,93.50
2022-11-07T08:18:41.212Z,93.00
2022-11-07T08:21:07.613Z,92.50
2022-11-07T08:23:33.995Z,92.40
2022-11-07T08:26:00.387Z,91.80
2022-11-07T08:28:27.061Z,91.70
2022-11-07T08:30:53.556Z,91.00
2022-11-07T08:33:20.120Z,91.00
2022-11-07T08:35:46.660Z,90.70
2022-11-07T08:38:13.049Z,90.40
2022-11-07T08:40:39.476Z,90.10
2022-11-07T08:43:05.917Z,89.60
2022-11-07T08:45:32.321Z,88.90
2022-11-07T08:47:58.734Z,88.50
2022-11-07T08:50:25.248Z,87.90
2022-11-07T08:52:51.633Z,87.10
2022-11-07T08:55:18.036Z,87.10
2022-11-07T08:57:44.451Z,86.50
2022-11-07T09:00:10.839Z,86.30
2022-11-07T09:05:23.613Z,85.80
2022-11-07T09:07:50.069Z,84.60
2022-11-07T09:10:16.464Z,85.10
2022-11-07T09:12:42.854Z,84.50
2022-11-07T09:15:09.273Z,84.70
2022-11-07T09:17:35.677Z,84.20
2022-11-07T09:20:02.155Z,83.70
2022-11-07T09:22:28.575Z,83.50
2022-11-07T09:24:54.968Z,82.80
2022-11-07T09:27:21.376Z,83.30
2022-11-07T09:29:47.782Z,83.10
2022-11-07T09:32:42.866Z,82.70
2022-11-07T09:35:04.919Z,81.60
2022-11-07T09:37:31.564Z,80.90
2022-11-07T09:39:58.005Z,79.80
2022-11-07T09:42:24.406Z,79.30
2022-11-07T09:44:50.813Z,78.60
2022-11-07T09:47:17.213Z,78.10
2022-11-07T09:49:43.625Z,78.20
2022-11-07T09:52:10.160Z,77.30
2022-11-07T09:54:36.562Z,76.60
2022-11-07T09:57:03.084Z,76.60
2022-11-07T09:59:29.539Z,75.70
2022-11-07T10:01:55.951Z,75.40
2022-11-07T10:04:26.647Z,75.10
2022-11-07T10:06:53.575Z,74.60
2022-11-07T10:09:20.048Z,74.70
2022-11-07T10:11:46.468Z,74.90
2022-11-07T10:14:12.892Z,74.10
2022-11-07T10:16:39.287Z,74.00
2022-11-07T10:19:05.683Z,73.40
2022-11-07T10:21:39.594Z,74.00
2022-11-07T10:24:06.118Z,73.80
2022-11-07T10:26:32.514Z,73.20
2022-11-07T10:28:58.897Z,73.20
2022-11-07T10:31:25.313Z,73.40
2022-11-07T10:33:51.708Z,74.00
2022-11-07T10:36:18.117Z,73.70
2022-11-07T10:38:44.567Z,73.50
2022-11-07T10:41:10.951Z,73.30
2022-11-07T10:43:37.369Z,73.20
2022-11-07T10:46:03.776Z,73.00
2022-11-07T10:48:30.166Z,72.80
2022-11-07T10:50:56.598Z,72.50
2022-11-07T10:53:23.010Z,72.60
2022-11-07T10:55:49.402Z,72.20
2022-11-07T10:58:16.097Z,71.90
2022-11-07T11:00:42.803Z,71.40
2022-11-07T11:03:09.375Z,70.90
2022-11-07T11:05:35.810Z,70.50
2022-11-07T11:08:02.324Z,70.50
2022-11-07T11:10:28.707Z,70.30
2022-11-07T11:12:55.103Z,70.10
2022-11-07T11:15:21.469Z,69.60
2022-11-07T11:17:47.881Z,69.90
2022-11-07T11:20:14.329Z,69.70
2022-11-07T11:22:41.091Z,68.90
2022-11-07T11:25:07.499Z,68.80
2022-11-07T11:27:33.964Z,69.00
2022-11-07T11:30:00.383Z,69.40
2022-11-07T11:32:26.822Z,69.60
2022-11-07T11:34:53.212Z,70.00
2022-11-07T11:37:19.604Z,69.90
2022-11-07T11:39:45.976Z,70.30
2022-11-07T11:42:12.431Z,70.20
2022-11-07T11:44:38.816Z,70.30
2022-11-07T11:47:05.229Z,70.10
2022-11-07T11:49:31.605Z,69.60
2022-11-07T11:51:57.985Z,69.40
2022-11-07T11:54:24.396Z,69.70
2022-11-07T11:56:50.769Z,69.40
2022-11-07T11:59:17.157Z,69.00
2022-11-07T12:01:43.544Z,68.70
2022-11-07T12:04:09.931Z,68.10
2022-11-07T12:06:36.431Z,68.30
2022-11-07T12:09:02.868Z,68.50
2022-11-07T12:11:29.304Z,69.00
2022-11-07T12:13:55.680Z,68.40
2022-11-07T12:16:22.182Z,68.40
2022-11-07T12:18:48.585Z,68.70
2022-11-07T12:21:14.961Z,69.00
2022-11-07T12:23:41.355Z,68.80
2022-11-07T12:26:07.751Z,69.20
2022-11-07T12:28:34.135Z,68.90
2022-11-07T12:31:00.503Z,68.50
2022-11-07T12:33:26.904Z,67.60
2022-11-07T12:35:53.319Z,66.60
2022-11-07T12:38:19.722Z,65.50
2022-11-07T12:40:46.141Z,65.20
2022-11-07T12:43:12.533Z,64.00
2022-11-07T12:45:38.964Z,63.10
2022-11-07T12:48:10.215Z,62.60
2022-11-07T12:50:39.375Z,62.20
2022-11-07T12:53:05.815Z,61.10
2022-11-07T12:55:32.186Z,61.80
2022-11-07T12:57:58.568Z,62.10
2022-11-07T13:00:29.589Z,61.80
2022-11-07T13:02:56.500Z,62.10
2022-11-07T13:05:22.917Z,62.60
2022-11-07T13:07:49.311Z,63.00
2022-11-07T13:10:15.706Z,62.20
2022-11-07T13:12:42.101Z,61.40
2022-11-07T13:15:09.275Z,60.60
2022-11-07T13:17:36.028Z,60.10
2022-11-07T13:20:02.587Z,59.10
2022-11-07T13:22:29.161Z,59.40
2022-11-07T13:24:59.447Z,59.20
2022-11-07T13:27:29.805Z,59.90
2022-11-07T13:29:56.452Z,60.80
2022-11-07T13:32:23.670Z,60.70
2022-11-07T13:34:50.372Z,59.40
2022-11-07T13:37:17.956Z,57.30
2022-11-07T13:39:44.801Z,56.00
2022-11-07T13:42:11.390Z,55.30
2022-11-07T13:44:39.682Z,54.40
2022-11-07T13:47:06.166Z,55.00
2022-11-07T13:49:32.747Z,55.80
2022-11-07T13:51:59.309Z,56.80
2022-11-07T13:54:25.813Z,57.10
2022-11-07T13:56:52.271Z,57.20
2022-11-07T13:59:18.751Z,57.70
2022-11-07T14:01:45.508Z,57.30
2022-11-07T14:04:12.023Z,56.90
2022-11-07T14:06:38.559Z,57.20
2022-11-07T14:09:05.018Z,56.60
2022-11-07T14:11:31.625Z,55.60
2022-11-07T14:13:58.327Z,55.60
2022-11-07T14:16:24.903Z,55.10
2022-11-07T14:18:51.480Z,55.70
2022-11-07T14:21:18.050Z,56.20
2022-11-07T14:23:44.764Z,57.70
2022-11-07T14:26:11.263Z,58.80
2022-11-07T14:28:37.753Z,60.00
2022-11-07T14:31:04.841Z,60.50
2022-11-07T14:33:31.753Z,61.70
2022-11-07T14:35:58.371Z,62.40
2022-11-07T14:38:25.011Z,63.60
2022-11-07T14:40:51.497Z,63.40
2022-11-07T14:43:18.062Z,64.30
2022-11-07T14:46:11.235Z,64.90
2022-11-07T14:48:31.476Z,65.30
2022-11-07T14:50:57.942Z,65.80
2022-11-07T14:53:24.421Z,66.30
2022-11-07T14:55:51.131Z,66.80
2022-11-07T14:58:17.941Z,67.30
2022-11-07T15:00:44.606Z,68.00
2022-11-07T15:03:11.045Z,68.70
2022-11-07T15:05:37.565Z,69.40
2022-11-07T15:08:04.491Z,70.30
2022-11-07T15:10:31.172Z,71.00
2022-11-07T15:12:57.723Z,71.60
2022-11-07T15:15:25.631Z,72.30
2022-11-07T15:17:52.264Z,72.90
2022-11-07T15:20:18.806Z,73.20
2022-11-07T15:22:45.511Z,73.50
2022-11-07T15:25:11.997Z,73.60
2022-11-07T15:27:38.804Z,72.70
2022-11-07T15:30:05.497Z,72.40
2022-11-07T15:32:32.099Z,72.80
2022-11-07T15:35:12.439Z,73.30
2022-11-07T15:37:45.232Z,74.20
2022-11-07T15:40:11.693Z,75.20
2022-11-07T15:42:38.120Z,75.70
2022-11-07T15:45:04.663Z,76.80
2022-11-07T15:47:31.138Z,77.30
2022-11-07T15:49:57.694Z,78.20
2022-11-07T15:52:24.152Z,78.60
2022-11-07T15:54:50.609Z,79.70
2022-11-07T15:57:17.094Z,80.30
2022-11-07T15:59:43.630Z,81.20
2022-11-07T16:02:10.195Z,81.20
2022-11-07T16:04:39.741Z,81.70
2022-11-07T16:07:06.465Z,82.10
2022-11-07T16:09:33.072Z,83.10
2022-11-07T16:11:59.521Z,84.30
2022-11-07T16:14:55.851Z,84.70
2022-11-07T16:17:12.418Z,85.80
2022-11-07T16:19:39.105Z,86.90
2022-11-07T16:22:05.718Z,87.70
2022-11-07T16:24:32.354Z,88.30
2022-11-07T16:26:58.774Z,89.20
2022-11-07T16:29:25.298Z,89.60
2022-11-07T16:31:51.821Z,90.00
2022-11-07T16:34:18.261Z,90.10
2022-11-07T16:36:44.724Z,90.20
2022-11-07T16:39:11.274Z,90.20
2022-11-07T16:41:39.724Z,90.40
2022-11-07T16:44:06.240Z,90.50
2022-11-07T16:46:32.706Z,90.70
2022-11-07T16:48:59.390Z,90.90
2022-11-07T16:51:25.974Z,91.00
2022-11-07T16:53:53.391Z,90.90
2022-11-07T16:56:19.946Z,91.10
2022-11-07T16:58:46.755Z,91.50
2022-11-07T17:01:13.248Z,91.80
2022-11-07T17:03:39.731Z,91.80
2022-11-07T17:06:06.287Z,91.90
2022-11-07T17:08:32.843Z,92.10
2022-11-07T17:10:59.369Z,92.30
2022-11-07T17:13:25.987Z,92.40
2022-11-07T17:15:52.772Z,92.50
2022-11-07T17:18:19.578Z,92.60
2022-11-07T17:20:51.279Z,92.70
2022-11-07T17:23:18.512Z,92.90
2022-11-07T17:25:47.964Z,93.10
2022-11-07T17:28:14.941Z,93.10
2022-11-07T17:30:41.759Z,93.00
2022-11-07T17:35:49.011Z,93.10
2022-11-07T17:38:15.640Z,93.10
2022-11-07T17:40:42.389Z,93.00
2022-11-07T17:43:08.923Z,93.00
2022-11-07T17:45:35.423Z,93.10
2022-11-07T17:48:02.592Z,93.50
2022-11-07T17:50:29.187Z,93.50
2022-11-07T17:52:55.730Z,93.60
2022-11-07T17:55:22.165Z,93.80
2022-11-07T17:57:48.597Z,94.10
2022-11-07T18:00:15.117Z,94.20
2022-11-07T18:02:41.608Z,94.50
2022-11-07T18:05:08.351Z,94.60
2022-11-07T18:07:34.849Z,94.50
2022-11-07T18:10:01.350Z,94.60
2022-11-07T18:12:27.814Z,94.80
2022-11-07T18:14:54.293Z,95.10
2022-11-07T18:17:20.783Z,95.20
2022-11-07T18:19:47.254Z,95.40
2022-11-07T18:22:13.683Z,95.80
2022-11-07T18:24:40.152Z,96.20
2022-11-07T18:27:10.299Z,96.60
2022-11-07T18:29:37.097Z,96.70
2022-11-07T18:32:03.555Z,97.10
2022-11-07T18:34:29.957Z,97.80
2022-11-07T18:36:56.397Z,97.90
2022-11-07T18:39:22.792Z,98.20
2022-11-07T18:41:49.331Z,98.50
2022-11-07T18:44:15.804Z,98.80
2022-11-07T18:46:42.219Z,99.10
2022-11-07T18:49:08.706Z,99.40
2022-11-07T18:51:35.147Z,99.70
2022-11-07T18:54:01.625Z,99.60
2022-11-07T18:56:28.057Z,99.90
2022-11-07T18:58:54.610Z,99.90
2022-11-07T19:01:21.105Z,99.90
2022-11-07T19:03:47.721Z,99.90
2022-11-07T19:06:14.178Z,99.90
2022-11-07T19:08:40.639Z,99.90
2022-11-07T19:11:07.078Z,99.90
2022-11-07T19:13:33.519Z,99.90
2022-11-07T19:18:27.748Z,99.90
2022-11-07T19:20:54.147Z,99.90
2022-11-07T19:23:20.558Z,99.90
2022-11-07T19:25:46.942Z,99.90
2022-11-07T19:28:13.337Z,99.90
2022-11-07T19:30:39.726Z,99.90
2022-11-07T19:33:06.101Z,99.90
2022-11-07T19:35:32.508Z,99.90
2022-11-07T19:37:58.965Z,99.90
2022-11-07T19:40:25.377Z,99.90
2022-11-07T19:42:51.760Z,99.90
2022-11-07T19:45:18.150Z,99.90
2022-11-07T19:47:44.545Z,99.90
2022-11-07T19:50:10.952Z,99.90
2022-11-07T19:52:37.342Z,99.90
2022-11-07T19:55:03.766Z,99.90
2022-11-07T19:57:30.178Z,99.90
2022-11-07T19:59:56.558Z,99.90
2022-11-07T20:02:43.992Z,99.90
2022-11-07T20:05:09.419Z,99.90
2022-11-07T20:07:35.822Z,99.90
2022-11-07T20:10:02.207Z,99.90
2022-11-07T20:12:28.605Z,99.90
2022-11-07T20:14:54.999Z,99.90
2022-11-07T20:17:21.392Z,99.90
2022-11-07T20:19:47.789Z,99.90
2022-11-07T20:22:14.198Z,99.90
2022-11-07T20:24:40.589Z,99.90
2022-11-07T20:27:07.039Z,99.90
2022-11-07T20:29:33.484Z,99.90
2022-11-07T20:31:59.894Z,99.90
2022-11-07T20:34:26.268Z,99.90
2022-11-07T20:36:52.663Z,99.90
2022-11-07T20:39:19.092Z,99.90
2022-11-07T20:41:45.493Z,99.90
2022-11-07T20:44:11.862Z,99.90
2022-11-07T20:46:38.283Z,99.90
2022-11-07T20:49:04.698Z,99.90
2022-11-07T20:51:31.115Z,99.90
2022-11-07T20:53:57.515Z,99.90
2022-11-07T20:56:23.893Z,99.90
2022-11-07T20:58:50.317Z,99.90
2022-11-07T21:01:17.324Z,99.90
2022-11-07T21:03:43.903Z,99.90
2022-11-07T21:06:11.477Z,99.90
2022-11-07T21:08:38.000Z,99.90
2022-11-07T21:11:04.407Z,99.90
2022-11-07T21:13:30.793Z,99.90
2022-11-07T21:15:57.194Z,99.90
2022-11-07T21:18:24.652Z,99.90
2022-11-07T21:20:51.044Z,99.90
2022-11-07T21:23:17.956Z,99.90
2022-11-07T21:25:44.523Z,99.90
2022-11-07T21:28:10.936Z,99.90
2022-11-07T21:30:37.331Z,99.90
2022-11-07T21:33:03.737Z,99.90
2022-11-07T21:35:33.481Z,99.90
2022-11-07T21:38:00.136Z,99.90
2022-11-07T21:40:26.566Z,99.90
2022-11-07T21:42:52.955Z,99.90
2022-11-07T21:45:19.612Z,99.90
2022-11-07T21:47:46.262Z,99.90
2022-11-07T21:50:30.858Z,99.90
2022-11-07T21:52:59.037Z,99.90
2022-11-07T21:55:25.438Z,99.90
2022-11-07T21:57:51.850Z,99.90
2022-11-07T22:00:18.243Z,99.90
2022-11-07T22:02:44.723Z,99.90
2022-11-07T22:05:11.163Z,99.90
2022-11-07T22:07:37.658Z,99.90
2022-11-07T22:10:04.070Z,99.90
2022-11-07T22:12:30.470Z,99.90
2022-11-07T22:14:56.897Z,99.90
2022-11-07T22:17:23.285Z,99.90
2022-11-07T22:19:49.675Z,99.90
2022-11-07T22:22:16.076Z,99.90
2022-11-07T22:24:42.461Z,99.90
2022-11-07T22:27:08.870Z,99.90
2022-11-07T22:29:35.257Z,99.90
2022-11-07T22:32:01.677Z,99.90
2022-11-07T22:34:28.067Z,99.90
2022-11-07T22:36:54.466Z,99.90
2022-11-07T22:39:20.872Z,99.90
2022-11-07T22:41:47.296Z,99.90
2022-11-07T22:44:13.665Z,99.90
2022-11-07T22:46:40.065Z,99.90
2022-11-07T22:49:06.450Z,99.90
2022-11-07T22:51:32.939Z,99.90
2022-11-07T22:53:59.326Z,99.90
2022-11-07T22:56:25.817Z,99.90
2022-11-07T22:58:52.193Z,99.90
2022-11-07T23:01:18.569Z,99.90
2022-11-07T23:03:44.993Z,99.90
2022-11-07T23:06:11.405Z,99.90
2022-11-07T23:08:38.133Z,99.90
2022-11-07T23:13:50.892Z,99.90
2022-11-07T23:16:17.275Z,99.90
2022-11-07T23:18:43.696Z,99.90
2022-11-07T23:21:10.064Z,99.90
2022-11-07T23:23:36.475Z,99.90
2022-11-07T23:26:02.845Z,99.90
2022-11-07T23:28:29.245Z,99.90
2022-11-07T23:30:55.640Z,99.90
2022-11-07T23:33:22.245Z,99.90
2022-11-07T23:35:48.657Z,99.90
2022-11-07T23:38:15.468Z,99.90
2022-11-07T23:40:42.164Z,99.90
2022-11-07T23:43:08.535Z,99.90
2022-11-07T23:45:34.935Z,99.90
2022-11-07T23:48:01.319Z,99.90
2022-11-07T23:50:27.708Z,99.90
2022-11-07T23:52:54.117Z,99.90
2022-11-07T23:55:20.514Z,99.90
2022-11-07T23:57:46.933Z,99.90
